Time;durP1;ratioP1;P1;durP2;ratioP2;P2;SDS_P1;SDS_P2;PMS_P1;PMS_P2;Temp;Humidity;BMP_temperature;BMP_pressure;BME280_temperature;BME280_humidity;BME280_pressure;Samples;Min_cycle;Max_cycle;Signal;HPM_P1;HPM_P2
2023/05/06 00:01:14;;;;;;;;;;;13.60;99.90;;;;;;4900265;29;19927;-72
2023/05/06 00:03:39;;;;;;;;;;;13.60;99.90;;;;;;4899564;29;19934;-71
2023/05/06 00:06:07;;;;;;;;;;;13.60;99.90;;;;;;4914581;29;20270;-71
2023/05/06 00:08:33;;;;;;;;;;;13.60;99.90;;;;;;4898845;29;19934;-73
2023/05/06 00:10:58;;;;;;;;;;;13.50;99.90;;;;;;4914828;29;19928;-71
2023/05/06 00:13:24;;;;;;;;;;;13.50;99.90;;;;;;4899100;29;19950;-67
2023/05/06 00:15:49;;;;;;;;;;;13.40;99.90;;;;;;4899005;29;19928;-67
2023/05/06 00:18:15;;;;;;;;;;;13.30;99.90;;;;;;4897887;29;20309;-67
2023/05/06 00:20:41;;;;;;;;;;;13.30;99.90;;;;;;4882228;29;20014;-68
2023/05/06 00:23:07;;;;;;;;;;;13.30;99.90;;;;;;4899262;29;20345;-67
2023/05/06 00:25:32;;;;;;;;;;;13.20;99.90;;;;;;4913671;29;19927;-67
2023/05/06 00:27:58;;;;;;;;;;;13.20;99.90;;;;;;4898367;29;20405;-65
2023/05/06 00:30:24;;;;;;;;;;;13.20;99.90;;;;;;4882618;29;19950;-66
2023/05/06 00:32:50;;;;;;;;;;;13.10;99.90;;;;;;4897964;29;20171;-65
2023/05/06 00:35:15;;;;;;;;;;;13.10;99.90;;;;;;4882409;29;20109;-65
2023/05/06 00:37:43;;;;;;;;;;;13.10;99.90;;;;;;4898909;29;19934;-66
2023/05/06 00:40:09;;;;;;;;;;;13.10;99.90;;;;;;4897741;29;19983;-66
2023/05/06 00:42:35;;;;;;;;;;;13.10;99.90;;;;;;4897745;29;20077;-66
2023/05/06 00:45:00;;;;;;;;;;;13.10;99.90;;;;;;4899017;29;19932;-67
2023/05/06 00:47:26;;;;;;;;;;;13.10;99.90;;;;;;4866830;29;19988;-66
2023/05/06 00:49:52;;;;;;;;;;;13.00;99.90;;;;;;4896753;29;19923;-66
2023/05/06 00:52:18;;;;;;;;;;;13.10;99.90;;;;;;4898929;29;19970;-66
2023/05/06 00:54:44;;;;;;;;;;;13.10;99.90;;;;;;4898404;29;20018;-66
2023/05/06 00:57:10;;;;;;;;;;;13.10;99.90;;;;;;4913601;29;20005;-67
2023/05/06 00:59:35;;;;;;;;;;;13.10;99.90;;;;;;4897424;29;19927;-68
2023/05/06 01:02:01;;;;;;;;;;;13.00;99.90;;;;;;4898038;29;19927;-67
2023/05/06 01:04:27;;;;;;;;;;;13.00;99.90;;;;;;4913672;29;20338;-66
2023/05/06 01:06:53;;;;;;;;;;;13.00;99.90;;;;;;4913024;29;20003;-66
2023/05/06 01:09:24;;;;;;;;;;;13.00;99.90;;;;;;4913222;29;19927;-66
2023/05/06 01:11:55;;;;;;;;;;;13.00;99.90;;;;;;4898184;29;20414;-66
2023/05/06 01:14:27;;;;;;;;;;;13.00;99.90;;;;;;4897565;29;19927;-66
2023/05/06 01:16:54;;;;;;;;;;;13.00;99.90;;;;;;4898190;29;20006;-66
2023/05/06 01:19:30;;;;;;;;;;;12.90;99.90;;;;;;4897680;29;20018;-66
2023/05/06 01:21:59;;;;;;;;;;;12.90;99.90;;;;;;4880967;29;19935;-66
2023/05/06 01:24:33;;;;;;;;;;;12.90;99.90;;;;;;4897264;29;19927;-67
2023/05/06 01:26:58;;;;;;;;;;;12.90;99.90;;;;;;4881616;29;19923;-67
2023/05/06 01:29:24;;;;;;;;;;;12.90;99.90;;;;;;4897514;29;19983;-66
2023/05/06 01:31:50;;;;;;;;;;;12.90;99.90;;;;;;4896651;29;20513;-66
2023/05/06 01:34:30;;;;;;;;;;;12.90;99.90;;;;;;4912929;29;19928;-65
2023/05/06 01:37:06;;;;;;;;;;;13.30;99.90;;;;;;4897691;29;19950;-65
2023/05/06 01:39:32;;;;;;;;;;;12.90;99.90;;;;;;4897177;29;20025;-66
2023/05/06 01:41:59;;;;;;;;;;;12.90;99.90;;;;;;4896919;29;20011;-66
2023/05/06 01:44:26;;;;;;;;;;;13.00;99.90;;;;;;4896812;29;19939;-67
2023/05/06 01:46:52;;;;;;;;;;;12.90;99.90;;;;;;4896542;29;19979;-66
2023/05/06 01:49:19;;;;;;;;;;;13.00;99.90;;;;;;4912522;29;19959;-66
2023/05/06 01:51:48;;;;;;;;;;;13.00;99.90;;;;;;4896408;29;19928;-66
2023/05/06 01:54:14;;;;;;;;;;;13.00;99.90;;;;;;4896770;29;19982;-67
2023/05/06 01:56:39;;;;;;;;;;;12.90;99.90;;;;;;4912050;29;19986;-67
2023/05/06 01:59:05;;;;;;;;;;;12.90;99.90;;;;;;4880631;29;20366;-66
2023/05/06 02:01:31;;;;;;;;;;;12.90;99.90;;;;;;4911446;29;20018;-66
2023/05/06 02:03:56;;;;;;;;;;;12.90;99.90;;;;;;4912117;29;20342;-66
2023/05/06 02:06:22;;;;;;;;;;;12.90;99.90;;;;;;4896775;29;19927;-66
2023/05/06 02:08:47;;;;;;;;;;;12.80;99.90;;;;;;4896249;29;19932;-67
2023/05/06 02:11:13;;;;;;;;;;;12.80;99.90;;;;;;4912169;29;19978;-67
2023/05/06 02:13:39;;;;;;;;;;;12.70;99.90;;;;;;4911992;29;19979;-66
2023/05/06 02:16:04;;;;;;;;;;;12.70;99.90;;;;;;4896204;29;19934;-66
2023/05/06 02:18:30;;;;;;;;;;;12.70;99.90;;;;;;4896502;29;19931;-66
2023/05/06 02:20:56;;;;;;;;;;;12.60;99.90;;;;;;4880008;29;19927;-66
2023/05/06 02:23:21;;;;;;;;;;;12.60;99.90;;;;;;4897425;29;19928;-65
2023/05/06 02:25:47;;;;;;;;;;;12.50;99.90;;;;;;4895815;29;19995;-70
2023/05/06 02:28:13;;;;;;;;;;;12.50;99.90;;;;;;4896028;29;20048;-66
2023/05/06 02:30:38;;;;;;;;;;;12.50;99.90;;;;;;4897261;29;20424;-66
2023/05/06 02:33:04;;;;;;;;;;;12.50;99.90;;;;;;4911473;29;19928;-66
2023/05/06 02:35:29;;;;;;;;;;;12.50;99.90;;;;;;4895552;29;20174;-66
2023/05/06 02:37:55;;;;;;;;;;;12.40;99.90;;;;;;4911357;29;19927;-66
2023/05/06 02:40:20;;;;;;;;;;;12.40;99.90;;;;;;4911677;29;20251;-65
2023/05/06 02:42:46;;;;;;;;;;;12.40;99.90;;;;;;4880676;29;19975;-65
2023/05/06 02:45:12;;;;;;;;;;;12.40;99.90;;;;;;4895665;29;19947;-66
2023/05/06 02:47:37;;;;;;;;;;;12.30;99.90;;;;;;4896179;29;20346;-66
2023/05/06 02:50:03;;;;;;;;;;;12.30;99.90;;;;;;4895536;29;20068;-66
2023/05/06 02:52:29;;;;;;;;;;;12.30;99.90;;;;;;4896201;29;19927;-64
2023/05/06 02:54:54;;;;;;;;;;;12.20;99.90;;;;;;4911248;29;20012;-65
2023/05/06 02:57:20;;;;;;;;;;;12.20;99.90;;;;;;4896969;29;19935;-65
2023/05/06 02:59:45;;;;;;;;;;;12.20;99.90;;;;;;4864971;29;20019;-66
2023/05/06 03:02:11;;;;;;;;;;;12.20;99.90;;;;;;4896636;29;19987;-65
2023/05/06 03:04:36;;;;;;;;;;;12.10;99.90;;;;;;4897092;29;20384;-65
2023/05/06 03:07:02;;;;;;;;;;;12.00;99.90;;;;;;4864568;29;19983;-65
2023/05/06 03:09:28;;;;;;;;;;;12.00;99.90;;;;;;4897033;29;19932;-66
2023/05/06 03:11:54;;;;;;;;;;;12.00;99.90;;;;;;4897971;29;19928;-69
2023/05/06 03:14:20;;;;;;;;;;;12.00;99.90;;;;;;4915092;29;19928;-66
2023/05/06 03:16:46;;;;;;;;;;;12.00;99.90;;;;;;4899580;29;19934;-66
2023/05/06 03:19:11;;;;;;;;;;;12.00;99.90;;;;;;4914692;29;19928;-66
2023/05/06 03:21:37;;;;;;;;;;;11.90;99.90;;;;;;4899294;29;19931;-66
2023/05/06 03:24:02;;;;;;;;;;;11.90;99.90;;;;;;4914944;29;19927;-66
2023/05/06 03:26:28;;;;;;;;;;;11.90;99.90;;;;;;4900549;29;19935;-66
2023/05/06 03:28:54;;;;;;;;;;;11.80;99.90;;;;;;4883621;29;19928;-66
2023/05/06 03:31:19;;;;;;;;;;;11.70;99.90;;;;;;4900049;29;19954;-66
2023/05/06 03:33:45;;;;;;;;;;;11.80;99.90;;;;;;4914918;29;20374;-66
2023/05/06 03:36:12;;;;;;;;;;;11.70;99.90;;;;;;4898643;29;19935;-66
2023/05/06 03:38:39;;;;;;;;;;;11.80;99.90;;;;;;4898920;29;19927;-66
2023/05/06 03:41:04;;;;;;;;;;;11.80;99.90;;;;;;4898712;29;20306;-66
2023/05/06 03:43:30;;;;;;;;;;;11.80;99.90;;;;;;4914880;29;19931;-66
2023/05/06 03:45:56;;;;;;;;;;;11.80;99.90;;;;;;4914234;29;20002;-67
2023/05/06 03:48:22;;;;;;;;;;;11.80;99.90;;;;;;4898628;29;19934;-66
2023/05/06 03:50:48;;;;;;;;;;;11.90;99.90;;;;;;4914718;29;19934;-66
2023/05/06 03:53:14;;;;;;;;;;;11.80;99.90;;;;;;4899722;29;20010;-66
2023/05/06 03:55:39;;;;;;;;;;;11.80;99.90;;;;;;4882574;29;19931;-65
2023/05/06 03:58:05;;;;;;;;;;;11.80;99.90;;;;;;4898074;29;19927;-65
2023/05/06 04:00:30;;;;;;;;;;;11.70;99.90;;;;;;4899820;29;19927;-66
2023/05/06 04:02:56;;;;;;;;;;;11.80;99.90;;;;;;4883250;29;19928;-66
2023/05/06 04:05:21;;;;;;;;;;;11.80;99.90;;;;;;4914161;29;19931;-66
2023/05/06 04:07:47;;;;;;;;;;;11.80;99.90;;;;;;4914436;29;19931;-66
2023/05/06 04:10:13;;;;;;;;;;;11.80;99.90;;;;;;4913764;29;19927;-65
2023/05/06 04:12:38;;;;;;;;;;;11.80;99.90;;;;;;4898720;29;19928;-66
2023/05/06 04:15:04;;;;;;;;;;;11.80;99.90;;;;;;4899508;29;19927;-69
2023/05/06 04:17:30;;;;;;;;;;;11.80;99.90;;;;;;4914079;29;20022;-65
2023/05/06 04:19:56;;;;;;;;;;;11.80;99.90;;;;;;4913868;29;20022;-66
2023/05/06 04:22:21;;;;;;;;;;;11.80;99.90;;;;;;4913841;29;20302;-66
2023/05/06 04:24:47;;;;;;;;;;;11.80;99.90;;;;;;4896977;29;20405;-66
2023/05/06 04:27:13;;;;;;;;;;;11.80;99.90;;;;;;4882015;29;20000;-66
2023/05/06 04:29:39;;;;;;;;;;;11.80;99.90;;;;;;4882803;29;19928;-65
2023/05/06 04:32:05;;;;;;;;;;;11.80;99.90;;;;;;4898295;29;19928;-67
2023/05/06 04:34:30;;;;;;;;;;;11.80;99.90;;;;;;4882417;29;19998;-66
2023/05/06 04:36:57;;;;;;;;;;;11.80;99.90;;;;;;4897752;29;20052;-66
2023/05/06 04:39:23;;;;;;;;;;;11.90;99.90;;;;;;4881977;29;20025;-66
2023/05/06 04:41:48;;;;;;;;;;;11.90;99.90;;;;;;4913451;29;19989;-65
2023/05/06 04:44:14;;;;;;;;;;;11.90;99.90;;;;;;4913382;29;20102;-66
2023/05/06 04:46:40;;;;;;;;;;;11.90;99.90;;;;;;4913574;29;19979;-66
2023/05/06 04:49:06;;;;;;;;;;;11.90;99.90;;;;;;4897292;29;20408;-66
2023/05/06 04:51:31;;;;;;;;;;;12.00;99.90;;;;;;4913344;29;19928;-65
2023/05/06 04:53:57;;;;;;;;;;;11.90;99.90;;;;;;4881820;29;19978;-65
2023/05/06 04:56:23;;;;;;;;;;;11.90;99.90;;;;;;4881471;29;20290;-65
2023/05/06 04:58:48;;;;;;;;;;;12.00;99.90;;;;;;4898587;29;19959;-66
2023/05/06 05:01:14;;;;;;;;;;;12.00;99.90;;;;;;4898244;29;20369;-66
2023/05/06 05:03:40;;;;;;;;;;;11.90;99.90;;;;;;4882323;29;20019;-66
2023/05/06 05:06:06;;;;;;;;;;;12.00;99.90;;;;;;4898675;29;19928;-66
2023/05/06 05:08:31;;;;;;;;;;;12.00;99.90;;;;;;4896878;29;20517;-64
2023/05/06 05:10:57;;;;;;;;;;;12.10;99.90;;;;;;4881929;29;19932;-65
2023/05/06 05:13:23;;;;;;;;;;;12.10;99.90;;;;;;4897307;29;19927;-65
2023/05/06 05:15:48;;;;;;;;;;;12.10;99.90;;;;;;4897593;29;19928;-65
2023/05/06 05:18:14;;;;;;;;;;;12.20;99.90;;;;;;4898086;29;20445;-68
2023/05/06 05:20:39;;;;;;;;;;;12.20;99.90;;;;;;4898179;29;19934;-65
2023/05/06 05:23:05;;;;;;;;;;;12.20;99.90;;;;;;4912915;29;19927;-65
2023/05/06 05:25:31;;;;;;;;;;;12.50;99.90;;;;;;4912830;29;19928;-67
2023/05/06 05:27:56;;;;;;;;;;;12.90;99.90;;;;;;4913086;29;19932;-67
2023/05/06 05:30:22;;;;;;;;;;;13.60;99.90;;;;;;4896757;29;20326;-66
2023/05/06 05:32:47;;;;;;;;;;;14.20;99.90;;;;;;4912808;29;19928;-66
2023/05/06 05:35:13;;;;;;;;;;;14.60;99.90;;;;;;4896788;29;20465;-69
2023/05/06 05:37:39;;;;;;;;;;;14.60;99.90;;;;;;4897568;29;19971;-68
2023/05/06 05:40:05;;;;;;;;;;;14.70;99.90;;;;;;4897064;29;20382;-67
2023/05/06 05:42:32;;;;;;;;;;;14.50;99.90;;;;;;4880375;29;19938;-66
2023/05/06 05:44:58;;;;;;;;;;;14.50;99.90;;;;;;4897042;29;20034;-66
2023/05/06 05:47:24;;;;;;;;;;;14.60;99.90;;;;;;4897766;29;19978;-66
2023/05/06 05:49:49;;;;;;;;;;;14.60;99.90;;;;;;4881376;29;20411;-66
2023/05/06 05:52:15;;;;;;;;;;;14.70;99.90;;;;;;4896933;29;19977;-67
2023/05/06 05:54:40;;;;;;;;;;;14.80;99.90;;;;;;4896482;29;19927;-67
2023/05/06 05:57:06;;;;;;;;;;;14.70;99.90;;;;;;4912439;29;19933;-67
2023/05/06 05:59:32;;;;;;;;;;;14.50;99.90;;;;;;4897103;29;20363;-68
2023/05/06 06:01:57;;;;;;;;;;;14.30;99.90;;;;;;4896525;29;19933;-65
2023/05/06 06:04:23;;;;;;;;;;;14.10;99.90;;;;;;4896370;29;20130;-67
2023/05/06 06:06:49;;;;;;;;;;;14.00;99.90;;;;;;4897803;29;20397;-66
2023/05/06 06:09:15;;;;;;;;;;;13.90;99.90;;;;;;4896877;29;20030;-66
2023/05/06 06:11:41;;;;;;;;;;;13.80;99.90;;;;;;4896420;29;19927;-65
2023/05/06 06:14:06;;;;;;;;;;;13.80;99.90;;;;;;4897422;29;20019;-67
2023/05/06 06:16:32;;;;;;;;;;;13.70;99.90;;;;;;4865209;29;19988;-65
2023/05/06 06:18:58;;;;;;;;;;;13.70;99.90;;;;;;4912215;29;19976;-66
2023/05/06 06:21:23;;;;;;;;;;;13.70;99.90;;;;;;4896795;29;20187;-67
2023/05/06 06:23:49;;;;;;;;;;;13.70;99.90;;;;;;4880514;29;20338;-66
2023/05/06 06:26:14;;;;;;;;;;;13.70;99.90;;;;;;4911858;29;20018;-65
2023/05/06 06:28:40;;;;;;;;;;;13.70;99.90;;;;;;4896045;29;19928;-66
2023/05/06 06:31:06;;;;;;;;;;;13.60;99.90;;;;;;4896398;29;19934;-66
2023/05/06 06:33:31;;;;;;;;;;;13.70;99.90;;;;;;4880315;29;20296;-66
2023/05/06 06:35:57;;;;;;;;;;;13.60;99.90;;;;;;4911889;29;19931;-67
2023/05/06 06:38:23;;;;;;;;;;;13.70;99.90;;;;;;4896383;29;19928;-66
2023/05/06 06:40:48;;;;;;;;;;;13.70;99.90;;;;;;4880355;29;19982;-66
2023/05/06 06:43:14;;;;;;;;;;;13.70;99.90;;;;;;4897104;29;19934;-66
2023/05/06 06:45:39;;;;;;;;;;;13.60;99.90;;;;;;4895363;29;19974;-66
2023/05/06 06:48:05;;;;;;;;;;;13.60;99.90;;;;;;4885923;29;19935;-66
2023/05/06 06:50:31;;;;;;;;;;;13.60;99.90;;;;;;4901968;29;20029;-65
2023/05/06 06:52:57;;;;;;;;;;;13.60;99.90;;;;;;4903153;29;20457;-65
2023/05/06 06:55:22;;;;;;;;;;;13.60;99.90;;;;;;4886330;29;20031;-68
2023/05/06 06:57:48;;;;;;;;;;;13.60;99.90;;;;;;4886313;29;20450;-65
2023/05/06 07:00:14;;;;;;;;;;;13.60;99.90;;;;;;4917625;29;20010;-65
2023/05/06 07:02:39;;;;;;;;;;;13.60;99.90;;;;;;4917755;29;20368;-65
2023/05/06 07:05:05;;;;;;;;;;;13.70;99.90;;;;;;4902258;29;19985;-65
2023/05/06 07:07:31;;;;;;;;;;;13.70;99.90;;;;;;4903025;29;20022;-69
2023/05/06 07:09:56;;;;;;;;;;;13.70;99.90;;;;;;4902026;29;19935;-65
2023/05/06 07:12:23;;;;;;;;;;;13.70;99.90;;;;;;4903319;29;20461;-65
2023/05/06 07:14:49;;;;;;;;;;;13.70;99.90;;;;;;4885769;29;19986;-66
2023/05/06 07:17:14;;;;;;;;;;;13.70;99.90;;;;;;4886461;29;19971;-66
2023/05/06 07:19:40;;;;;;;;;;;13.70;99.90;;;;;;4902532;29;19928;-66
2023/05/06 07:22:06;;;;;;;;;;;13.70;99.90;;;;;;4901726;29;19927;-66
2023/05/06 07:24:31;;;;;;;;;;;13.70;99.90;;;;;;4886120;29;19931;-66
2023/05/06 07:26:57;;;;;;;;;;;13.70;99.90;;;;;;4917427;29;19932;-66
2023/05/06 07:29:22;;;;;;;;;;;13.70;99.90;;;;;;4886341;29;19928;-66
2023/05/06 07:31:48;;;;;;;;;;;13.70;99.90;;;;;;4901415;29;19928;-66
2023/05/06 07:34:14;;;;;;;;;;;13.70;99.90;;;;;;4902047;29;19984;-66
2023/05/06 07:36:39;;;;;;;;;;;13.60;99.90;;;;;;4902366;29;19927;-66
2023/05/06 07:39:05;;;;;;;;;;;13.60;99.90;;;;;;4917601;29;19966;-65
2023/05/06 07:41:31;;;;;;;;;;;13.50;99.90;;;;;;4902678;29;19951;-65
2023/05/06 07:43:57;;;;;;;;;;;13.50;99.90;;;;;;4902443;29;19929;-65
2023/05/06 07:46:24;;;;;;;;;;;13.50;99.90;;;;;;4916418;29;20145;-65
2023/05/06 07:48:50;;;;;;;;;;;13.60;99.90;;;;;;4901425;29;20377;-65
2023/05/06 07:51:16;;;;;;;;;;;13.60;99.90;;;;;;4917525;29;19988;-65
2023/05/06 07:53:42;;;;;;;;;;;13.60;99.90;;;;;;4901074;29;19935;-65
2023/05/06 07:56:07;;;;;;;;;;;13.60;99.90;;;;;;4916466;29;19932;-65
2023/05/06 07:58:33;;;;;;;;;;;13.60;99.90;;;;;;4914676;29;20483;-64
2023/05/06 08:00:59;;;;;;;;;;;13.60;99.90;;;;;;4897462;29;19924;-65
2023/05/06 08:03:25;;;;;;;;;;;13.70;99.90;;;;;;4914108;29;19975;-65
2023/05/06 08:05:50;;;;;;;;;;;13.80;99.90;;;;;;4882683;29;20014;-65
2023/05/06 08:08:17;;;;;;;;;;;13.90;99.90;;;;;;4882973;29;19927;-66
2023/05/06 08:10:43;;;;;;;;;;;14.00;99.90;;;;;;4898840;29;20409;-70
2023/05/06 08:13:09;;;;;;;;;;;14.10;99.90;;;;;;4898658;29;19927;-66
2023/05/06 08:15:34;;;;;;;;;;;14.20;99.90;;;;;;4898557;29;20274;-65
2023/05/06 08:18:00;;;;;;;;;;;;;;;;;;4899121;29;19934;-66
2023/05/06 08:20:26;;;;;;;;;;;14.40;99.90;;;;;;4914042;29;19943;-66
2023/05/06 08:22:51;;;;;;;;;;;15.50;99.90;;;;;;4913769;29;19928;-66
2023/05/06 08:25:17;;;;;;;;;;;15.90;99.90;;;;;;4913913;29;19940;-66
2023/05/06 08:27:44;;;;;;;;;;;16.40;99.90;;;;;;4897481;29;19931;-70
2023/05/06 08:30:10;;;;;;;;;;;;;;;;;;4897844;29;19935;-67
2023/05/06 08:32:35;;;;;;;;;;;17.00;99.90;;;;;;4898211;29;20310;-67
2023/05/06 08:35:01;;;;;;;;;;;18.80;99.90;;;;;;4882215;29;19927;-66
2023/05/06 08:37:26;;;;;;;;;;;19.60;99.90;;;;;;4897968;29;20027;-68
2023/05/06 08:39:52;;;;;;;;;;;20.40;99.90;;;;;;4897482;29;20053;-67
2023/05/06 08:42:17;;;;;;;;;;;21.00;99.90;;;;;;4899037;29;20018;-67
2023/05/06 08:44:44;;;;;;;;;;;21.50;99.90;;;;;;4881973;29;20290;-67
2023/05/06 08:47:10;;;;;;;;;;;21.70;99.90;;;;;;4913405;29;19978;-67
2023/05/06 08:49:36;;;;;;;;;;;22.00;99.90;;;;;;4882322;29;20366;-67
2023/05/06 08:52:03;;;;;;;;;;;22.10;99.90;;;;;;4881670;29;20378;-67
2023/05/06 08:54:30;;;;;;;;;;;22.00;99.90;;;;;;4897517;29;19935;-67
2023/05/06 08:56:56;;;;;;;;;;;22.30;99.90;;;;;;4881292;29;20334;-68
2023/05/06 08:59:25;;;;;;;;;;;22.70;99.90;;;;;;4913405;29;20348;-67
2023/05/06 09:01:52;;;;;;;;;;;22.70;99.90;;;;;;4912835;29;19934;-67
2023/05/06 09:04:18;;;;;;;;;;;22.90;99.90;;;;;;4897154;29;19962;-66
2023/05/06 09:06:43;;;;;;;;;;;23.00;99.90;;;;;;4897419;29;19978;-69
2023/05/06 09:09:09;;;;;;;;;;;23.00;99.90;;;;;;4896617;29;20503;-67
2023/05/06 09:11:37;;;;;;;;;;;23.00;99.90;;;;;;4897482;29;19951;-67
2023/05/06 09:14:09;;;;;;;;;;;22.50;99.90;;;;;;4896920;29;19990;-67
2023/05/06 09:16:35;;;;;;;;;;;22.10;99.90;;;;;;4912956;29;20026;-67
2023/05/06 09:19:01;;;;;;;;;;;21.80;99.90;;;;;;4896289;29;19938;-68
2023/05/06 09:21:40;;;;;;;;;;;21.60;99.90;;;;;;4897037;29;19931;-67
2023/05/06 09:24:07;;;;;;;;;;;21.70;99.90;;;;;;4896717;29;19927;-67
2023/05/06 09:26:34;;;;;;;;;;;21.70;99.90;;;;;;4912867;29;19978;-67
2023/05/06 09:29:00;;;;;;;;;;;21.80;99.90;;;;;;4896536;29;20000;-67
2023/05/06 09:31:26;;;;;;;;;;;21.70;99.90;;;;;;4897049;29;19974;-70
2023/05/06 09:33:52;;;;;;;;;;;21.80;99.90;;;;;;4881528;29;19935;-70
2023/05/06 09:36:18;;;;;;;;;;;22.00;99.90;;;;;;4912560;29;19934;-68
2023/05/06 09:38:43;;;;;;;;;;;22.20;99.90;;;;;;4912701;29;19927;-69
2023/05/06 09:41:10;;;;;;;;;;;22.20;99.90;;;;;;4880580;29;19927;-68
2023/05/06 09:43:36;;;;;;;;;;;22.00;99.90;;;;;;4898116;29;19928;-68
2023/05/06 09:46:04;;;;;;;;;;;21.70;99.90;;;;;;4896483;29;19982;-69
2023/05/06 09:48:30;;;;;;;;;;;21.70;99.90;;;;;;4896580;29;19931;-69
2023/05/06 09:50:56;;;;;;;;;;;21.70;99.90;;;;;;4896775;29;19927;-72
2023/05/06 09:53:26;;;;;;;;;;;21.80;99.90;;;;;;4896433;29;19928;-68
2023/05/06 09:55:52;;;;;;;;;;;21.60;99.90;;;;;;4896419;29;20015;-68
2023/05/06 09:58:19;;;;;;;;;;;21.50;99.90;;;;;;4896787;29;20258;-69
2023/05/06 10:00:45;;;;;;;;;;;21.40;99.90;;;;;;4879975;29;19933;-70
2023/05/06 10:03:12;;;;;;;;;;;21.40;99.90;;;;;;4895151;29;20026;-69
2023/05/06 10:05:38;;;;;;;;;;;21.50;99.90;;;;;;4896495;29;19979;-69
2023/05/06 10:08:03;;;;;;;;;;;21.60;99.90;;;;;;4894771;29;19935;-69
2023/05/06 10:10:30;;;;;;;;;;;21.60;99.90;;;;;;4895001;29;19927;-70
2023/05/06 10:12:55;;;;;;;;;;;21.50;99.90;;;;;;4895523;29;19935;-69
2023/05/06 10:15:22;;;;;;;;;;;21.40;99.90;;;;;;4894856;29;19924;-70
2023/05/06 10:17:51;;;;;;;;;;;21.20;99.90;;;;;;4894172;29;19927;-70
2023/05/06 10:20:18;;;;;;;;;;;21.00;99.90;;;;;;4894869;29;19927;-70
2023/05/06 10:23:02;;;;;;;;;;;20.90;99.90;;;;;;4879000;29;19927;-69
2023/05/06 10:25:31;;;;;;;;;;;20.90;99.90;;;;;;4895271;29;19927;-69
2023/05/06 10:27:57;;;;;;;;;;;20.90;99.90;;;;;;4894690;29;19927;-69
2023/05/06 10:30:23;;;;;;;;;;;21.10;99.90;;;;;;4894233;29;19923;-68
2023/05/06 10:32:50;;;;;;;;;;;21.10;99.90;;;;;;4894747;29;19927;-68
2023/05/06 10:35:36;;;;;;;;;;;21.00;99.90;;;;;;4894759;29;19935;-68
2023/05/06 10:38:03;;;;;;;;;;;21.00;99.90;;;;;;4895417;29;20022;-68
2023/05/06 10:40:29;;;;;;;;;;;21.00;99.90;;;;;;4896001;29;19978;-68
2023/05/06 10:43:13;;;;;;;;;;;21.10;99.90;;;;;;4895228;29;20030;-68
2023/05/06 10:45:57;;;;;;;;;;;21.10;99.90;;;;;;4910625;29;19927;-68
2023/05/06 10:48:22;;;;;;;;;;;20.90;99.90;;;;;;4894689;29;19928;-68
2023/05/06 10:50:48;;;;;;;;;;;20.90;99.90;;;;;;4910324;29;19950;-68
2023/05/06 10:53:14;;;;;;;;;;;20.90;99.90;;;;;;4910599;29;19928;-68
2023/05/06 10:55:39;;;;;;;;;;;20.80;99.90;;;;;;4910855;29;20479;-69
2023/05/06 10:58:12;;;;;;;;;;;20.80;99.90;;;;;;4895499;29;20251;-70
2023/05/06 11:00:37;;;;;;;;;;;20.90;99.90;;;;;;4910461;29;19931;-69
2023/05/06 11:03:08;;;;;;;;;;;20.80;99.90;;;;;;4896118;29;19928;-69
2023/05/06 11:05:45;;;;;;;;;;;20.90;99.90;;;;;;4879558;29;19934;-68
2023/05/06 11:08:11;;;;;;;;;;;21.00;99.90;;;;;;4895849;29;19928;-68
2023/05/06 11:10:37;;;;;;;;;;;21.10;99.90;;;;;;4910285;29;20026;-68
2023/05/06 11:13:21;;;;;;;;;;;21.20;99.90;;;;;;4910711;29;20365;-68
2023/05/06 11:15:50;;;;;;;;;;;21.20;99.90;;;;;;4908929;29;19971;-69
2023/05/06 11:18:26;;;;;;;;;;;21.00;99.90;;;;;;4894590;29;19935;-68
2023/05/06 11:21:01;;;;;;;;;;;20.80;99.90;;;;;;4910433;29;20374;-68
2023/05/06 11:23:53;;;;;;;;;;;20.70;99.90;;;;;;4910213;29;19934;-67
2023/05/06 11:26:19;;;;;;;;;;;20.60;99.90;;;;;;4888682;29;19927;-69
2023/05/06 11:28:45;;;;;;;;;;;20.50;99.90;;;;;;4879676;29;20245;-67
2023/05/06 11:31:11;;;;;;;;;;;20.40;99.90;;;;;;4880180;29;19934;-67
2023/05/06 11:33:41;;;;;;;;;;;20.20;99.90;;;;;;4898852;29;20377;-67
2023/05/06 11:36:13;;;;;;;;;;;20.10;99.90;;;;;;4899289;29;19934;-73
2023/05/06 11:38:42;;;;;;;;;;;20.00;99.90;;;;;;4883704;29;20056;-73
2023/05/06 11:41:08;;;;;;;;;;;20.10;99.90;;;;;;4898688;29;19928;-69
2023/05/06 11:43:33;;;;;;;;;;;20.00;99.90;;;;;;4898512;29;19993;-68
2023/05/06 11:45:59;;;;;;;;;;;20.00;99.90;;;;;;4900031;29;19927;-68
2023/05/06 11:48:24;;;;;;;;;;;19.90;99.90;;;;;;4913409;29;20370;-67
2023/05/06 11:50:50;;;;;;;;;;;20.00;99.90;;;;;;4913423;29;19974;-67
2023/05/06 11:53:17;;;;;;;;;;;20.00;99.90;;;;;;4898385;29;19932;-69
2023/05/06 11:55:43;;;;;;;;;;;20.10;99.90;;;;;;4897257;29;19940;-67
2023/05/06 11:58:13;;;;;;;;;;;20.10;99.90;;;;;;4897435;29;19927;-67
2023/05/06 12:00:50;;;;;;;;;;;20.10;99.90;;;;;;4896981;29;19928;-67
2023/05/06 12:03:16;;;;;;;;;;;19.90;99.90;;;;;;4913183;29;19927;-69
2023/05/06 12:05:42;;;;;;;;;;;19.80;99.90;;;;;;4913114;29;20022;-69
2023/05/06 12:08:08;;;;;;;;;;;19.80;99.90;;;;;;4898305;29;20388;-66
2023/05/06 12:10:34;;;;;;;;;;;19.70;99.90;;;;;;4898077;29;19928;-65
2023/05/06 12:12:59;;;;;;;;;;;19.60;99.90;;;;;;4899375;29;19928;-67
2023/05/06 12:15:25;;;;;;;;;;;19.50;99.90;;;;;;4913636;29;19979;-69
2023/05/06 12:17:51;;;;;;;;;;;19.50;99.90;;;;;;4882653;29;19955;-67
2023/05/06 12:20:17;;;;;;;;;;;19.40;99.90;;;;;;4914228;29;19935;-67
2023/05/06 12:22:43;;;;;;;;;;;19.30;99.90;;;;;;4898409;29;19935;-68
2023/05/06 12:25:14;;;;;;;;;;;19.30;99.90;;;;;;4899441;29;19931;-68
2023/05/06 12:27:40;;;;;;;;;;;19.10;99.90;;;;;;4898918;29;19927;-67
2023/05/06 12:30:07;;;;;;;;;;;19.00;99.90;;;;;;4882535;29;20404;-65
2023/05/06 12:32:33;;;;;;;;;;;19.00;99.90;;;;;;4898081;29;19945;-66
2023/05/06 12:35:04;;;;;;;;;;;18.90;99.90;;;;;;4897889;29;19927;-67
2023/05/06 12:37:30;;;;;;;;;;;18.80;99.90;;;;;;4898084;29;19944;-67
2023/05/06 12:39:56;;;;;;;;;;;18.70;99.90;;;;;;4912877;29;19934;-67
2023/05/06 12:42:22;;;;;;;;;;;18.50;99.90;;;;;;4897131;29;19928;-68
2023/05/06 12:44:48;;;;;;;;;;;18.30;99.90;;;;;;4898121;29;19931;-68
2023/05/06 12:47:20;;;;;;;;;;;18.20;99.90;;;;;;4897381;29;20018;-67
2023/05/06 12:49:47;;;;;;;;;;;18.00;99.90;;;;;;4896995;29;19934;-67
2023/05/06 12:52:13;;;;;;;;;;;18.00;99.90;;;;;;4881812;29;19934;-65
2023/05/06 12:54:39;;;;;;;;;;;17.90;99.90;;;;;;4897224;29;19927;-66
2023/05/06 12:57:04;;;;;;;;;;;17.80;99.90;;;;;;4896558;29;20389;-67
2023/05/06 12:59:30;;;;;;;;;;;17.70;99.90;;;;;;4865987;29;19975;-67
2023/05/06 13:01:56;;;;;;;;;;;17.70;99.90;;;;;;4881912;29;19928;-68
2023/05/06 13:04:22;;;;;;;;;;;17.40;99.90;;;;;;4882091;29;19927;-68
2023/05/06 13:06:48;;;;;;;;;;;17.20;99.90;;;;;;4897029;29;20018;-68
2023/05/06 13:09:14;;;;;;;;;;;17.10;99.90;;;;;;4898671;29;20270;-67
2023/05/06 13:11:40;;;;;;;;;;;16.90;99.90;;;;;;4912855;29;19952;-67
2023/05/06 13:14:06;;;;;;;;;;;16.80;99.90;;;;;;4881485;29;19927;-68
2023/05/06 13:16:32;;;;;;;;;;;16.80;99.90;;;;;;4881514;29;19927;-68
2023/05/06 13:18:57;;;;;;;;;;;16.80;99.90;;;;;;4898351;29;19982;-68
2023/05/06 13:21:23;;;;;;;;;;;16.80;99.90;;;;;;4896654;29;20438;-69
2023/05/06 13:23:49;;;;;;;;;;;16.80;99.90;;;;;;4896402;29;20010;-69
2023/05/06 13:26:14;;;;;;;;;;;16.80;99.90;;;;;;4896836;29;20014;-69
2023/05/06 13:28:40;;;;;;;;;;;16.70;99.90;;;;;;4912096;29;19934;-69
2023/05/06 13:31:06;;;;;;;;;;;16.60;99.90;;;;;;4881530;29;19927;-68
2023/05/06 13:33:35;;;;;;;;;;;16.70;99.90;;;;;;4880434;29;19928;-71
2023/05/06 13:36:00;;;;;;;;;;;16.80;99.90;;;;;;4897027;29;19927;-68
2023/05/06 13:38:27;;;;;;;;;;;16.90;99.90;;;;;;4898022;29;20334;-68
2023/05/06 13:40:53;;;;;;;;;;;16.90;99.90;;;;;;4880854;29;20031;-68
2023/05/06 13:43:19;;;;;;;;;;;16.80;99.90;;;;;;4912177;29;20372;-68
2023/05/06 13:45:44;;;;;;;;;;;16.80;99.90;;;;;;4911883;29;19927;-68
2023/05/06 13:48:13;;;;;;;;;;;16.70;99.90;;;;;;4881356;29;20370;-70
2023/05/06 13:50:42;;;;;;;;;;;16.70;99.90;;;;;;4912119;29;19927;-69
2023/05/06 13:53:08;;;;;;;;;;;16.70;99.90;;;;;;4881239;29;19927;-68
2023/05/06 13:55:33;;;;;;;;;;;16.60;99.90;;;;;;4911616;29;20282;-72
2023/05/06 13:57:59;;;;;;;;;;;16.70;99.90;;;;;;4911449;29;19928;-69
2023/05/06 14:00:25;;;;;;;;;;;16.70;99.90;;;;;;4912208;29;19994;-68
2023/05/06 14:02:51;;;;;;;;;;;16.80;99.90;;;;;;4897177;29;19932;-69
2023/05/06 14:05:16;;;;;;;;;;;16.80;99.90;;;;;;4910898;29;20334;-68
2023/05/06 14:07:42;;;;;;;;;;;16.90;99.90;;;;;;4895148;29;19927;-69
2023/05/06 14:10:08;;;;;;;;;;;16.90;99.90;;;;;;4897081;29;20036;-68
2023/05/06 14:12:33;;;;;;;;;;;17.00;99.90;;;;;;4880302;29;19928;-68
2023/05/06 14:14:59;;;;;;;;;;;17.00;99.90;;;;;;4896618;29;19935;-69